sensor_id;sensor_type;location;lat;lon;timestamp;P1;durP1;ratioP1;P2;durP2;ratioP2
51654;SDS011;37732;53.106;7.030;2023-06-14T00:02:21;6.07;;;2.53;;
51654;SDS011;37732;53.106;7.030;2023-06-14T00:04:49;5.18;;;2.63;;
51654;SDS011;37732;53.106;7.030;2023-06-14T00:07:18;6.32;;;3.20;;
51654;SDS011;37732;53.106;7.030;2023-06-14T00:09:50;5.90;;;2.60;;
51654;SDS011;37732;53.106;7.030;2023-06-14T00:12:19;6.85;;;3.08;;
51654;SDS011;37732;53.106;7.030;2023-06-14T00:14:45;5.45;;;3.25;;
51654;SDS011;37732;53.106;7.030;2023-06-14T00:17:12;6.15;;;2.92;;
51654;SDS011;37732;53.106;7.030;2023-06-14T00:19:38;5.07;;;2.55;;
51654;SDS011;37732;53.106;7.030;2023-06-14T00:22:06;9.25;;;2.63;;
51654;SDS011;37732;53.106;7.030;2023-06-14T00:24:35;6.25;;;3.25;;
51654;SDS011;37732;53.106;7.030;2023-06-14T00:27:01;6.63;;;3.25;;
51654;SDS011;37732;53.106;7.030;2023-06-14T00:29:28;6.93;;;2.80;;
51654;SDS011;37732;53.106;7.030;2023-06-14T00:31:55;7.03;;;3.00;;
51654;SDS011;37732;53.106;7.030;2023-06-14T00:34:21;6.78;;;2.85;;
51654;SDS011;37732;53.106;7.030;2023-06-14T00:36:47;5.82;;;3.10;;
51654;SDS011;37732;53.106;7.030;2023-06-14T00:39:14;5.20;;;2.90;;
51654;SDS011;37732;53.106;7.030;2023-06-14T00:41:41;4.65;;;2.80;;
51654;SDS011;37732;53.106;7.030;2023-06-14T00:44:08;7.88;;;3.42;;
51654;SDS011;37732;53.106;7.030;2023-06-14T00:46:35;7.18;;;3.25;;
51654;SDS011;37732;53.106;7.030;2023-06-14T00:49:02;4.72;;;2.78;;
51654;SDS011;37732;53.106;7.030;2023-06-14T00:51:28;5.43;;;2.90;;
51654;SDS011;37732;53.106;7.030;2023-06-14T00:53:55;4.80;;;2.90;;
51654;SDS011;37732;53.106;7.030;2023-06-14T00:56:23;7.95;;;3.40;;
51654;SDS011;37732;53.106;7.030;2023-06-14T00:58:52;5.10;;;2.50;;
51654;SDS011;37732;53.106;7.030;2023-06-14T01:10:30;5.15;;;2.65;;
51654;SDS011;37732;53.106;7.030;2023-06-14T02:28:54;5.85;;;2.75;;
51654;SDS011;37732;53.106;7.030;2023-06-14T02:31:20;5.40;;;3.50;;
51654;SDS011;37732;53.106;7.030;2023-06-14T02:33:46;5.80;;;3.40;;
51654;SDS011;37732;53.106;7.030;2023-06-14T02:36:13;6.88;;;3.05;;
51654;SDS011;37732;53.106;7.030;2023-06-14T02:38:39;6.72;;;3.38;;
51654;SDS011;37732;53.106;7.030;2023-06-14T02:41:06;5.28;;;3.13;;
51654;SDS011;37732;53.106;7.030;2023-06-14T02:43:33;8.15;;;3.30;;
51654;SDS011;37732;53.106;7.030;2023-06-14T02:46:01;5.15;;;3.03;;
51654;SDS011;37732;53.106;7.030;2023-06-14T02:48:27;5.63;;;3.10;;
51654;SDS011;37732;53.106;7.030;2023-06-14T02:50:58;7.75;;;3.75;;
51654;SDS011;37732;53.106;7.030;2023-06-14T02:53:25;6.32;;;3.33;;
51654;SDS011;37732;53.106;7.030;2023-06-14T02:55:54;5.57;;;3.30;;
51654;SDS011;37732;53.106;7.030;2023-06-14T02:58:21;4.35;;;2.78;;
51654;SDS011;37732;53.106;7.030;2023-06-14T03:00:50;5.10;;;3.45;;
51654;SDS011;37732;53.106;7.030;2023-06-14T03:03:21;6.40;;;3.42;;
51654;SDS011;37732;53.106;7.030;2023-06-14T03:05:50;6.05;;;3.60;;
51654;SDS011;37732;53.106;7.030;2023-06-14T03:08:17;6.20;;;2.80;;
51654;SDS011;37732;53.106;7.030;2023-06-14T03:10:48;5.80;;;3.17;;
51654;SDS011;37732;53.106;7.030;2023-06-14T03:13:14;5.80;;;3.90;;
51654;SDS011;37732;53.106;7.030;2023-06-14T03:15:44;7.63;;;3.95;;
51654;SDS011;37732;53.106;7.030;2023-06-14T03:18:14;7.00;;;3.90;;
51654;SDS011;37732;53.106;7.030;2023-06-14T03:20:42;5.97;;;3.58;;
51654;SDS011;37732;53.106;7.030;2023-06-14T03:23:10;6.45;;;3.78;;
51654;SDS011;37732;53.106;7.030;2023-06-14T03:25:38;6.80;;;3.50;;
51654;SDS011;37732;53.106;7.030;2023-06-14T03:28:07;7.03;;;4.05;;
51654;SDS011;37732;53.106;7.030;2023-06-14T03:30:33;5.43;;;3.10;;
51654;SDS011;37732;53.106;7.030;2023-06-14T03:33:01;6.05;;;3.42;;
51654;SDS011;37732;53.106;7.030;2023-06-14T03:35:28;6.30;;;3.78;;
51654;SDS011;37732;53.106;7.030;2023-06-14T03:37:55;5.70;;;3.20;;
51654;SDS011;37732;53.106;7.030;2023-06-14T03:40:22;5.43;;;3.70;;
51654;SDS011;37732;53.106;7.030;2023-06-14T03:42:52;6.72;;;3.80;;
51654;SDS011;37732;53.106;7.030;2023-06-14T03:45:24;6.80;;;3.85;;
51654;SDS011;37732;53.106;7.030;2023-06-14T03:47:52;5.35;;;3.58;;
51654;SDS011;37732;53.106;7.030;2023-06-14T03:50:21;8.38;;;3.78;;
51654;SDS011;37732;53.106;7.030;2023-06-14T03:52:50;6.10;;;3.60;;
51654;SDS011;37732;53.106;7.030;2023-06-14T03:55:16;6.22;;;3.78;;
51654;SDS011;37732;53.106;7.030;2023-06-14T03:57:45;6.03;;;3.83;;
51654;SDS011;37732;53.106;7.030;2023-06-14T04:00:16;8.70;;;3.83;;
51654;SDS011;37732;53.106;7.030;2023-06-14T04:02:45;8.25;;;3.60;;
51654;SDS011;37732;53.106;7.030;2023-06-14T04:05:12;6.10;;;3.38;;
51654;SDS011;37732;53.106;7.030;2023-06-14T04:07:38;9.95;;;3.40;;
51654;SDS011;37732;53.106;7.030;2023-06-14T04:10:13;7.28;;;3.65;;
51654;SDS011;37732;53.106;7.030;2023-06-14T04:12:43;6.30;;;3.35;;
51654;SDS011;37732;53.106;7.030;2023-06-14T04:15:09;8.35;;;3.92;;
51654;SDS011;37732;53.106;7.030;2023-06-14T04:17:36;10.05;;;4.03;;
51654;SDS011;37732;53.106;7.030;2023-06-14T04:20:04;6.72;;;4.25;;
51654;SDS011;37732;53.106;7.030;2023-06-14T04:22:34;6.13;;;3.95;;
51654;SDS011;37732;53.106;7.030;2023-06-14T04:25:02;6.13;;;3.90;;
51654;SDS011;37732;53.106;7.030;2023-06-14T04:27:31;6.55;;;3.92;;
51654;SDS011;37732;53.106;7.030;2023-06-14T04:30:01;5.82;;;3.53;;
51654;SDS011;37732;53.106;7.030;2023-06-14T04:32:28;6.22;;;3.83;;
51654;SDS011;37732;53.106;7.030;2023-06-14T04:35:00;7.13;;;3.85;;
51654;SDS011;37732;53.106;7.030;2023-06-14T04:37:31;7.82;;;3.90;;
51654;SDS011;37732;53.106;7.030;2023-06-14T04:39:58;10.43;;;4.18;;
51654;SDS011;37732;53.106;7.030;2023-06-14T04:42:25;8.98;;;4.22;;
51654;SDS011;37732;53.106;7.030;2023-06-14T04:44:59;8.27;;;4.35;;
51654;SDS011;37732;53.106;7.030;2023-06-14T04:47:30;8.15;;;4.65;;
51654;SDS011;37732;53.106;7.030;2023-06-14T04:50:01;8.80;;;3.85;;
51654;SDS011;37732;53.106;7.030;2023-06-14T04:52:28;8.63;;;5.03;;
51654;SDS011;37732;53.106;7.030;2023-06-14T04:57:47;8.15;;;3.80;;
51654;SDS011;37732;53.106;7.030;2023-06-14T05:00:14;6.22;;;4.03;;
51654;SDS011;37732;53.106;7.030;2023-06-14T05:02:40;6.22;;;4.03;;
51654;SDS011;37732;53.106;7.030;2023-06-14T05:05:06;8.90;;;4.45;;
51654;SDS011;37732;53.106;7.030;2023-06-14T05:07:33;8.85;;;4.03;;
51654;SDS011;37732;53.106;7.030;2023-06-14T05:09:59;10.13;;;4.68;;
51654;SDS011;37732;53.106;7.030;2023-06-14T05:12:25;6.70;;;3.80;;
51654;SDS011;37732;53.106;7.030;2023-06-14T05:14:50;8.02;;;3.67;;
51654;SDS011;37732;53.106;7.030;2023-06-14T05:17:16;8.43;;;3.72;;
51654;SDS011;37732;53.106;7.030;2023-06-14T05:19:42;7.70;;;4.15;;
51654;SDS011;37732;53.106;7.030;2023-06-14T05:22:08;9.70;;;4.43;;
51654;SDS011;37732;53.106;7.030;2023-06-14T05:24:33;7.18;;;3.80;;
51654;SDS011;37732;53.106;7.030;2023-06-14T05:27:00;6.70;;;4.03;;
51654;SDS011;37732;53.106;7.030;2023-06-14T05:29:25;6.95;;;3.75;;
51654;SDS011;37732;53.106;7.030;2023-06-14T05:31:52;6.03;;;4.00;;
51654;SDS011;37732;53.106;7.030;2023-06-14T05:34:18;7.28;;;4.65;;
51654;SDS011;37732;53.106;7.030;2023-06-14T05:36:43;9.68;;;4.22;;
51654;SDS011;37732;53.106;7.030;2023-06-14T05:39:09;7.07;;;4.18;;
51654;SDS011;37732;53.106;7.030;2023-06-14T05:41:35;7.97;;;3.90;;
51654;SDS011;37732;53.106;7.030;2023-06-14T05:44:01;8.02;;;3.88;;
51654;SDS011;37732;53.106;7.030;2023-06-14T05:46:27;7.72;;;3.97;;
51654;SDS011;37732;53.106;7.030;2023-06-14T05:48:54;6.32;;;3.70;;
51654;SDS011;37732;53.106;7.030;2023-06-14T05:51:20;6.10;;;4.00;;
51654;SDS011;37732;53.106;7.030;2023-06-14T05:53:47;8.27;;;4.43;;
51654;SDS011;37732;53.106;7.030;2023-06-14T05:56:14;6.22;;;4.00;;
51654;SDS011;37732;53.106;7.030;2023-06-14T05:58:40;7.40;;;4.10;;
51654;SDS011;37732;53.106;7.030;2023-06-14T06:01:06;6.63;;;3.50;;
51654;SDS011;37732;53.106;7.030;2023-06-14T06:03:31;11.85;;;4.22;;
51654;SDS011;37732;53.106;7.030;2023-06-14T06:05:58;8.88;;;3.85;;
51654;SDS011;37732;53.106;7.030;2023-06-14T06:08:24;7.65;;;3.63;;
51654;SDS011;37732;53.106;7.030;2023-06-14T06:10:51;5.88;;;3.58;;
51654;SDS011;37732;53.106;7.030;2023-06-14T06:13:16;5.65;;;3.53;;
51654;SDS011;37732;53.106;7.030;2023-06-14T06:15:42;9.02;;;3.35;;
51654;SDS011;37732;53.106;7.030;2023-06-14T06:18:07;9.38;;;4.10;;
51654;SDS011;37732;53.106;7.030;2023-06-14T06:20:33;7.82;;;4.15;;
51654;SDS011;37732;53.106;7.030;2023-06-14T06:22:59;5.45;;;3.22;;
51654;SDS011;37732;53.106;7.030;2023-06-14T06:25:25;7.13;;;3.40;;
51654;SDS011;37732;53.106;7.030;2023-06-14T06:27:56;6.38;;;3.20;;
51654;SDS011;37732;53.106;7.030;2023-06-14T06:30:23;7.32;;;3.58;;
51654;SDS011;37732;53.106;7.030;2023-06-14T06:32:49;8.82;;;3.60;;
51654;SDS011;37732;53.106;7.030;2023-06-14T06:35:15;6.65;;;3.40;;
51654;SDS011;37732;53.106;7.030;2023-06-14T06:37:42;5.50;;;3.13;;
51654;SDS011;37732;53.106;7.030;2023-06-14T06:40:08;5.00;;;2.97;;
51654;SDS011;37732;53.106;7.030;2023-06-14T06:42:35;5.05;;;2.83;;
51654;SDS011;37732;53.106;7.030;2023-06-14T06:45:01;5.00;;;3.08;;
51654;SDS011;37732;53.106;7.030;2023-06-14T06:47:26;4.68;;;2.85;;
51654;SDS011;37732;53.106;7.030;2023-06-14T06:49:52;4.80;;;2.75;;
51654;SDS011;37732;53.106;7.030;2023-06-14T06:52:18;5.97;;;3.10;;
51654;SDS011;37732;53.106;7.030;2023-06-14T06:54:44;7.53;;;2.75;;
51654;SDS011;37732;53.106;7.030;2023-06-14T06:57:10;6.22;;;3.00;;
51654;SDS011;37732;53.106;7.030;2023-06-14T06:59:36;4.78;;;2.95;;
51654;SDS011;37732;53.106;7.030;2023-06-14T07:02:02;6.00;;;3.03;;
51654;SDS011;37732;53.106;7.030;2023-06-14T07:04:28;5.15;;;3.10;;
51654;SDS011;37732;53.106;7.030;2023-06-14T07:06:54;8.02;;;3.50;;
51654;SDS011;37732;53.106;7.030;2023-06-14T07:09:19;4.38;;;3.13;;
51654;SDS011;37732;53.106;7.030;2023-06-14T07:11:46;4.70;;;3.03;;
51654;SDS011;37732;53.106;7.030;2023-06-14T07:14:12;5.57;;;2.83;;
51654;SDS011;37732;53.106;7.030;2023-06-14T07:16:38;8.38;;;3.22;;
51654;SDS011;37732;53.106;7.030;2023-06-14T07:19:04;6.57;;;3.10;;
51654;SDS011;37732;53.106;7.030;2023-06-14T07:21:30;6.00;;;3.30;;
51654;SDS011;37732;53.106;7.030;2023-06-14T07:23:56;8.18;;;2.83;;
51654;SDS011;37732;53.106;7.030;2023-06-14T07:26:22;5.88;;;3.00;;
51654;SDS011;37732;53.106;7.030;2023-06-14T07:28:48;4.45;;;3.25;;
51654;SDS011;37732;53.106;7.030;2023-06-14T07:31:17;5.97;;;2.63;;
51654;SDS011;37732;53.106;7.030;2023-06-14T07:33:44;4.75;;;2.38;;
51654;SDS011;37732;53.106;7.030;2023-06-14T07:36:10;5.07;;;2.60;;
51654;SDS011;37732;53.106;7.030;2023-06-14T07:38:36;7.43;;;2.92;;
51654;SDS011;37732;53.106;7.030;2023-06-14T07:41:01;6.15;;;2.80;;
51654;SDS011;37732;53.106;7.030;2023-06-14T07:43:28;5.32;;;2.83;;
51654;SDS011;37732;53.106;7.030;2023-06-14T07:45:53;6.35;;;2.97;;
51654;SDS011;37732;53.106;7.030;2023-06-14T07:48:20;5.43;;;3.10;;
51654;SDS011;37732;53.106;7.030;2023-06-14T07:50:45;4.97;;;2.72;;
51654;SDS011;37732;53.106;7.030;2023-06-14T07:53:11;7.95;;;2.90;;
51654;SDS011;37732;53.106;7.030;2023-06-14T07:55:37;6.07;;;2.90;;
51654;SDS011;37732;53.106;7.030;2023-06-14T07:58:03;7.68;;;2.65;;
51654;SDS011;37732;53.106;7.030;2023-06-14T08:00:30;6.57;;;2.60;;
51654;SDS011;37732;53.106;7.030;2023-06-14T08:02:55;5.38;;;2.75;;
51654;SDS011;37732;53.106;7.030;2023-06-14T08:05:24;5.30;;;2.67;;
51654;SDS011;37732;53.106;7.030;2023-06-14T08:07:51;5.13;;;3.00;;
51654;SDS011;37732;53.106;7.030;2023-06-14T08:10:17;8.02;;;2.75;;
51654;SDS011;37732;53.106;7.030;2023-06-14T08:12:43;4.68;;;2.78;;
51654;SDS011;37732;53.106;7.030;2023-06-14T08:15:09;7.75;;;3.42;;
51654;SDS011;37732;53.106;7.030;2023-06-14T08:17:35;3.95;;;2.33;;
51654;SDS011;37732;53.106;7.030;2023-06-14T08:20:01;4.40;;;2.83;;
51654;SDS011;37732;53.106;7.030;2023-06-14T08:22:29;4.68;;;2.80;;
51654;SDS011;37732;53.106;7.030;2023-06-14T08:24:58;6.63;;;3.05;;
51654;SDS011;37732;53.106;7.030;2023-06-14T08:27:24;5.25;;;2.60;;
51654;SDS011;37732;53.106;7.030;2023-06-14T08:29:50;9.50;;;2.88;;
51654;SDS011;37732;53.106;7.030;2023-06-14T08:32:16;4.57;;;2.58;;
51654;SDS011;37732;53.106;7.030;2023-06-14T08:34:42;4.85;;;2.42;;
51654;SDS011;37732;53.106;7.030;2023-06-14T08:37:07;6.22;;;2.75;;
51654;SDS011;37732;53.106;7.030;2023-06-14T08:39:33;7.40;;;2.80;;
51654;SDS011;37732;53.106;7.030;2023-06-14T08:41:58;5.10;;;2.95;;
51654;SDS011;37732;53.106;7.030;2023-06-14T08:44:28;4.55;;;2.47;;
51654;SDS011;37732;53.106;7.030;2023-06-14T08:46:55;4.40;;;2.78;;
51654;SDS011;37732;53.106;7.030;2023-06-14T08:49:22;7.28;;;3.03;;
51654;SDS011;37732;53.106;7.030;2023-06-14T08:51:54;5.25;;;2.97;;
51654;SDS011;37732;53.106;7.030;2023-06-14T08:54:28;6.35;;;3.28;;
51654;SDS011;37732;53.106;7.030;2023-06-14T08:56:59;5.93;;;3.13;;
51654;SDS011;37732;53.106;7.030;2023-06-14T08:59:28;6.97;;;2.63;;
51654;SDS011;37732;53.106;7.030;2023-06-14T09:01:56;4.90;;;2.45;;
51654;SDS011;37732;53.106;7.030;2023-06-14T09:04:22;9.43;;;2.92;;
51654;SDS011;37732;53.106;7.030;2023-06-14T09:06:50;7.53;;;2.80;;
51654;SDS011;37732;53.106;7.030;2023-06-14T09:09:19;6.50;;;3.00;;
51654;SDS011;37732;53.106;7.030;2023-06-14T09:11:49;4.25;;;2.90;;
51654;SDS011;37732;53.106;7.030;2023-06-14T09:14:15;5.55;;;3.00;;
51654;SDS011;37732;53.106;7.030;2023-06-14T09:16:43;7.93;;;2.55;;
51654;SDS011;37732;53.106;7.030;2023-06-14T09:19:08;3.42;;;2.50;;
51654;SDS011;37732;53.106;7.030;2023-06-14T09:21:47;4.80;;;2.67;;
51654;SDS011;37732;53.106;7.030;2023-06-14T09:24:13;7.00;;;3.10;;
51654;SDS011;37732;53.106;7.030;2023-06-14T09:26:39;6.53;;;2.45;;
51654;SDS011;37732;53.106;7.030;2023-06-14T09:29:05;4.55;;;2.40;;
51654;SDS011;37732;53.106;7.030;2023-06-14T09:31:31;5.20;;;3.30;;
51654;SDS011;37732;53.106;7.030;2023-06-14T09:33:57;3.88;;;3.10;;
51654;SDS011;37732;53.106;7.030;2023-06-14T09:36:26;5.28;;;2.90;;
51654;SDS011;37732;53.106;7.030;2023-06-14T09:39:10;6.00;;;2.55;;
51654;SDS011;37732;53.106;7.030;2023-06-14T09:41:42;4.63;;;2.75;;
51654;SDS011;37732;53.106;7.030;2023-06-14T09:44:08;6.15;;;2.70;;
51654;SDS011;37732;53.106;7.030;2023-06-14T09:46:35;5.05;;;2.55;;
51654;SDS011;37732;53.106;7.030;2023-06-14T09:49:02;5.90;;;2.30;;
51654;SDS011;37732;53.106;7.030;2023-06-14T09:51:29;5.43;;;2.67;;
51654;SDS011;37732;53.106;7.030;2023-06-14T09:54:01;5.85;;;2.38;;
51654;SDS011;37732;53.106;7.030;2023-06-14T09:56:30;6.32;;;2.20;;
51654;SDS011;37732;53.106;7.030;2023-06-14T09:58:59;3.88;;;1.95;;
51654;SDS011;37732;53.106;7.030;2023-06-14T10:01:27;4.82;;;2.00;;
51654;SDS011;37732;53.106;7.030;2023-06-14T10:03:59;12.90;;;2.78;;
51654;SDS011;37732;53.106;7.030;2023-06-14T10:06:30;5.60;;;2.13;;
51654;SDS011;37732;53.106;7.030;2023-06-14T10:08:58;7.55;;;2.20;;
51654;SDS011;37732;53.106;7.030;2023-06-14T10:11:25;6.63;;;3.30;;
51654;SDS011;37732;53.106;7.030;2023-06-14T10:13:52;5.85;;;2.03;;
51654;SDS011;37732;53.106;7.030;2023-06-14T10:16:26;3.95;;;1.80;;
51654;SDS011;37732;53.106;7.030;2023-06-14T10:24:38;5.10;;;2.10;;
51654;SDS011;37732;53.106;7.030;2023-06-14T10:27:07;5.75;;;2.63;;
51654;SDS011;37732;53.106;7.030;2023-06-14T10:32:23;6.18;;;2.10;;
51654;SDS011;37732;53.106;7.030;2023-06-14T10:34:59;6.60;;;2.40;;
51654;SDS011;37732;53.106;7.030;2023-06-14T10:37:32;4.05;;;2.00;;
51654;SDS011;37732;53.106;7.030;2023-06-14T10:39:58;5.20;;;2.25;;
51654;SDS011;37732;53.106;7.030;2023-06-14T10:42:27;6.43;;;2.50;;
51654;SDS011;37732;53.106;7.030;2023-06-14T10:44:57;3.80;;;2.10;;
51654;SDS011;37732;53.106;7.030;2023-06-14T10:47:30;6.47;;;2.10;;
51654;SDS011;37732;53.106;7.030;2023-06-14T10:52:34;6.68;;;2.05;;
51654;SDS011;37732;53.106;7.030;2023-06-14T10:55:04;4.38;;;1.95;;
51654;SDS011;37732;53.106;7.030;2023-06-14T10:57:44;3.97;;;2.10;;
51654;SDS011;37732;53.106;7.030;2023-06-14T11:00:16;3.95;;;1.90;;
51654;SDS011;37732;53.106;7.030;2023-06-14T11:11:16;4.88;;;1.80;;
51654;SDS011;37732;53.106;7.030;2023-06-14T11:13:44;4.95;;;2.20;;
51654;SDS011;37732;53.106;7.030;2023-06-14T11:16:11;4.28;;;2.20;;
51654;SDS011;37732;53.106;7.030;2023-06-14T11:18:38;4.38;;;2.00;;
51654;SDS011;37732;53.106;7.030;2023-06-14T11:21:04;4.38;;;2.10;;
51654;SDS011;37732;53.106;7.030;2023-06-14T11:23:29;5.18;;;2.60;;
51654;SDS011;37732;53.106;7.030;2023-06-14T11:25:55;2.95;;;1.80;;
51654;SDS011;37732;53.106;7.030;2023-06-14T11:28:21;3.42;;;2.15;;
51654;SDS011;37732;53.106;7.030;2023-06-14T11:30:48;7.00;;;2.10;;
51654;SDS011;37732;53.106;7.030;2023-06-14T11:33:17;4.65;;;2.22;;
51654;SDS011;37732;53.106;7.030;2023-06-14T11:35:43;3.15;;;2.00;;
51654;SDS011;37732;53.106;7.030;2023-06-14T11:38:10;2.75;;;1.90;;
51654;SDS011;37732;53.106;7.030;2023-06-14T11:40:37;3.60;;;2.25;;
51654;SDS011;37732;53.106;7.030;2023-06-14T11:43:04;5.53;;;2.40;;
51654;SDS011;37732;53.106;7.030;2023-06-14T11:45:30;7.72;;;2.50;;
51654;SDS011;37732;53.106;7.030;2023-06-14T11:47:56;3.05;;;1.85;;
51654;SDS011;37732;53.106;7.030;2023-06-14T11:50:23;5.25;;;2.28;;
51654;SDS011;37732;53.106;7.030;2023-06-14T11:52:56;6.03;;;2.42;;
51654;SDS011;37732;53.106;7.030;2023-06-14T11:55:24;5.57;;;2.22;;
51654;SDS011;37732;53.106;7.030;2023-06-14T11:57:51;4.57;;;2.28;;
51654;SDS011;37732;53.106;7.030;2023-06-14T12:00:19;5.32;;;2.30;;
51654;SDS011;37732;53.106;7.030;2023-06-14T12:02:55;4.18;;;2.00;;
51654;SDS011;37732;53.106;7.030;2023-06-14T12:07:48;3.97;;;2.38;;
51654;SDS011;37732;53.106;7.030;2023-06-14T12:10:15;5.65;;;2.25;;
51654;SDS011;37732;53.106;7.030;2023-06-14T12:12:42;5.68;;;2.50;;
51654;SDS011;37732;53.106;7.030;2023-06-14T12:15:08;5.40;;;2.80;;
51654;SDS011;37732;53.106;7.030;2023-06-14T12:17:36;3.58;;;2.20;;
51654;SDS011;37732;53.106;7.030;2023-06-14T12:20:07;4.05;;;2.70;;
51654;SDS011;37732;53.106;7.030;2023-06-14T12:22:50;8.90;;;2.88;;
51654;SDS011;37732;53.106;7.030;2023-06-14T12:28:06;5.32;;;2.85;;
51654;SDS011;37732;53.106;7.030;2023-06-14T12:32:59;4.40;;;3.05;;
51654;SDS011;37732;53.106;7.030;2023-06-14T12:35:25;5.50;;;2.83;;
51654;SDS011;37732;53.106;7.030;2023-06-14T12:37:51;3.78;;;2.13;;
51654;SDS011;37732;53.106;7.030;2023-06-14T12:40:17;3.63;;;2.28;;
51654;SDS011;37732;53.106;7.030;2023-06-14T12:42:44;5.28;;;2.45;;
51654;SDS011;37732;53.106;7.030;2023-06-14T12:45:12;7.10;;;2.72;;
51654;SDS011;37732;53.106;7.030;2023-06-14T12:47:38;5.43;;;2.55;;
51654;SDS011;37732;53.106;7.030;2023-06-14T12:50:04;3.40;;;2.33;;
51654;SDS011;37732;53.106;7.030;2023-06-14T12:52:30;5.93;;;2.83;;
51654;SDS011;37732;53.106;7.030;2023-06-14T12:54:56;3.60;;;2.28;;
51654;SDS011;37732;53.106;7.030;2023-06-14T12:57:22;5.35;;;2.60;;
51654;SDS011;37732;53.106;7.030;2023-06-14T12:59:48;4.13;;;2.33;;
51654;SDS011;37732;53.106;7.030;2023-06-14T13:02:15;3.92;;;2.15;;
51654;SDS011;37732;53.106;7.030;2023-06-14T13:04:42;4.35;;;2.72;;
51654;SDS011;37732;53.106;7.030;2023-06-14T13:07:09;3.67;;;2.55;;
51654;SDS011;37732;53.106;7.030;2023-06-14T13:09:36;5.55;;;2.85;;
51654;SDS011;37732;53.106;7.030;2023-06-14T13:12:02;5.75;;;2.85;;
51654;SDS011;37732;53.106;7.030;2023-06-14T13:14:28;6.95;;;2.75;;
51654;SDS011;37732;53.106;7.030;2023-06-14T13:16:54;4.30;;;2.53;;
51654;SDS011;37732;53.106;7.030;2023-06-14T13:19:20;4.60;;;2.40;;
51654;SDS011;37732;53.106;7.030;2023-06-14T13:21:46;3.35;;;2.30;;
51654;SDS011;37732;53.106;7.030;2023-06-14T13:24:12;4.18;;;2.63;;
51654;SDS011;37732;53.106;7.030;2023-06-14T13:26:38;4.75;;;2.47;;
51654;SDS011;37732;53.106;7.030;2023-06-14T13:29:04;5.68;;;3.10;;
51654;SDS011;37732;53.106;7.030;2023-06-14T13:31:29;7.50;;;2.60;;
51654;SDS011;37732;53.106;7.030;2023-06-14T13:33:55;6.13;;;2.92;;
51654;SDS011;37732;53.106;7.030;2023-06-14T13:36:21;5.88;;;2.70;;
51654;SDS011;37732;53.106;7.030;2023-06-14T13:38:47;6.03;;;2.80;;
51654;SDS011;37732;53.106;7.030;2023-06-14T13:41:12;3.53;;;2.13;;
51654;SDS011;37732;53.106;7.030;2023-06-14T13:43:38;5.72;;;2.63;;
51654;SDS011;37732;53.106;7.030;2023-06-14T13:46:03;5.10;;;2.38;;
51654;SDS011;37732;53.106;7.030;2023-06-14T13:48:29;4.35;;;2.63;;
51654;SDS011;37732;53.106;7.030;2023-06-14T13:50:55;4.82;;;2.50;;
51654;SDS011;37732;53.106;7.030;2023-06-14T13:53:22;4.22;;;2.30;;
51654;SDS011;37732;53.106;7.030;2023-06-14T13:55:47;6.13;;;2.78;;
51654;SDS011;37732;53.106;7.030;2023-06-14T13:58:13;5.88;;;2.58;;
51654;SDS011;37732;53.106;7.030;2023-06-14T14:00:40;4.82;;;2.55;;
51654;SDS011;37732;53.106;7.030;2023-06-14T14:03:06;4.93;;;2.30;;
51654;SDS011;37732;53.106;7.030;2023-06-14T14:05:32;4.47;;;2.47;;
51654;SDS011;37732;53.106;7.030;2023-06-14T14:07:58;5.88;;;2.38;;
51654;SDS011;37732;53.106;7.030;2023-06-14T14:10:24;3.45;;;2.42;;
51654;SDS011;37732;53.106;7.030;2023-06-14T14:12:50;3.83;;;2.70;;
51654;SDS011;37732;53.106;7.030;2023-06-14T14:15:16;6.07;;;2.50;;
51654;SDS011;37732;53.106;7.030;2023-06-14T14:17:42;9.57;;;3.65;;
51654;SDS011;37732;53.106;7.030;2023-06-14T14:20:08;3.03;;;2.20;;
51654;SDS011;37732;53.106;7.030;2023-06-14T14:22:34;5.53;;;2.22;;
51654;SDS011;37732;53.106;7.030;2023-06-14T14:25:00;3.75;;;2.42;;
51654;SDS011;37732;53.106;7.030;2023-06-14T14:27:25;5.97;;;2.70;;
51654;SDS011;37732;53.106;7.030;2023-06-14T14:29:51;3.92;;;2.53;;
51654;SDS011;37732;53.106;7.030;2023-06-14T14:32:17;4.38;;;2.47;;
51654;SDS011;37732;53.106;7.030;2023-06-14T14:34:42;7.05;;;3.03;;
51654;SDS011;37732;53.106;7.030;2023-06-14T14:37:08;3.30;;;2.80;;
51654;SDS011;37732;53.106;7.030;2023-06-14T14:39:34;3.83;;;2.50;;
51654;SDS011;37732;53.106;7.030;2023-06-14T14:42:00;4.53;;;2.80;;
51654;SDS011;37732;53.106;7.030;2023-06-14T14:44:25;3.70;;;2.63;;
51654;SDS011;37732;53.106;7.030;2023-06-14T14:46:51;5.68;;;2.75;;
51654;SDS011;37732;53.106;7.030;2023-06-14T14:49:16;4.35;;;2.78;;
51654;SDS011;37732;53.106;7.030;2023-06-14T14:51:42;7.93;;;2.72;;
51654;SDS011;37732;53.106;7.030;2023-06-14T14:54:08;10.27;;;3.20;;
51654;SDS011;37732;53.106;7.030;2023-06-14T14:56:33;4.63;;;2.80;;
51654;SDS011;37732;53.106;7.030;2023-06-14T14:59:00;8.15;;;3.22;;
51654;SDS011;37732;53.106;7.030;2023-06-14T15:01:26;5.10;;;2.40;;
51654;SDS011;37732;53.106;7.030;2023-06-14T15:03:51;4.97;;;2.30;;
51654;SDS011;37732;53.106;7.030;2023-06-14T15:06:17;3.33;;;2.47;;
51654;SDS011;37732;53.106;7.030;2023-06-14T15:08:43;4.45;;;2.50;;
51654;SDS011;37732;53.106;7.030;2023-06-14T15:11:09;6.38;;;2.70;;
51654;SDS011;37732;53.106;7.030;2023-06-14T15:13:35;5.40;;;3.00;;
51654;SDS011;37732;53.106;7.030;2023-06-14T15:16:00;5.90;;;3.63;;
51654;SDS011;37732;53.106;7.030;2023-06-14T15:18:26;5.13;;;3.13;;
51654;SDS011;37732;53.106;7.030;2023-06-14T15:20:52;8.27;;;3.03;;
51654;SDS011;37732;53.106;7.030;2023-06-14T15:23:17;7.03;;;3.13;;
51654;SDS011;37732;53.106;7.030;2023-06-14T15:25:45;9.35;;;2.83;;
51654;SDS011;37732;53.106;7.030;2023-06-14T15:28:12;5.40;;;2.75;;
51654;SDS011;37732;53.106;7.030;2023-06-14T15:30:38;6.47;;;2.95;;
51654;SDS011;37732;53.106;7.030;2023-06-14T15:33:03;5.75;;;2.78;;
51654;SDS011;37732;53.106;7.030;2023-06-14T15:35:29;7.05;;;3.20;;
51654;SDS011;37732;53.106;7.030;2023-06-14T15:37:55;5.45;;;3.58;;
51654;SDS011;37732;53.106;7.030;2023-06-14T15:40:21;7.15;;;2.95;;
51654;SDS011;37732;53.106;7.030;2023-06-14T15:42:46;4.03;;;2.55;;
51654;SDS011;37732;53.106;7.030;2023-06-14T15:45:12;5.93;;;2.90;;
51654;SDS011;37732;53.106;7.030;2023-06-14T15:47:38;5.55;;;2.88;;
51654;SDS011;37732;53.106;7.030;2023-06-14T15:50:04;5.93;;;3.42;;
51654;SDS011;37732;53.106;7.030;2023-06-14T15:52:32;4.85;;;3.47;;
51654;SDS011;37732;53.106;7.030;2023-06-14T15:54:59;5.35;;;3.03;;
51654;SDS011;37732;53.106;7.030;2023-06-14T15:57:25;6.47;;;2.95;;
51654;SDS011;37732;53.106;7.030;2023-06-14T15:59:51;4.70;;;2.95;;
51654;SDS011;37732;53.106;7.030;2023-06-14T16:02:17;5.60;;;3.10;;
51654;SDS011;37732;53.106;7.030;2023-06-14T16:04:42;4.68;;;3.00;;
51654;SDS011;37732;53.106;7.030;2023-06-14T16:07:08;5.75;;;3.25;;
51654;SDS011;37732;53.106;7.030;2023-06-14T16:09:34;7.30;;;3.58;;
51654;SDS011;37732;53.106;7.030;2023-06-14T16:11:59;9.70;;;3.65;;
51654;SDS011;37732;53.106;7.030;2023-06-14T16:14:26;6.00;;;3.33;;
51654;SDS011;37732;53.106;7.030;2023-06-14T16:16:52;6.07;;;3.13;;
51654;SDS011;37732;53.106;7.030;2023-06-14T16:19:18;5.50;;;3.10;;
51654;SDS011;37732;53.106;7.030;2023-06-14T16:21:43;6.65;;;2.80;;
51654;SDS011;37732;53.106;7.030;2023-06-14T16:24:09;5.70;;;2.70;;
51654;SDS011;37732;53.106;7.030;2023-06-14T16:26:35;4.95;;;2.90;;
51654;SDS011;37732;53.106;7.030;2023-06-14T16:29:00;6.07;;;3.65;;
51654;SDS011;37732;53.106;7.030;2023-06-14T16:31:26;4.82;;;3.08;;
51654;SDS011;37732;53.106;7.030;2023-06-14T16:33:52;8.73;;;3.33;;
51654;SDS011;37732;53.106;7.030;2023-06-14T16:36:21;5.10;;;3.15;;
51654;SDS011;37732;53.106;7.030;2023-06-14T16:38:47;4.97;;;3.30;;
51654;SDS011;37732;53.106;7.030;2023-06-14T16:41:13;5.47;;;3.38;;
51654;SDS011;37732;53.106;7.030;2023-06-14T16:43:39;4.60;;;3.05;;